sensor_id;sensor_type;location;lat;lon;timestamp;P1;durP1;ratioP1;P2;durP2;ratioP2
18977;SDS011;9623;52.344;20.870;2022-10-31T00:01:00;17.90;;;10.17;;
18977;SDS011;9623;52.344;20.870;2022-10-31T00:03:31;18.10;;;10.67;;
18977;SDS011;9623;52.344;20.870;2022-10-31T00:06:00;18.53;;;10.83;;
18977;SDS011;9623;52.344;20.870;2022-10-31T00:08:30;17.43;;;10.93;;
18977;SDS011;9623;52.344;20.870;2022-10-31T00:11:00;18.87;;;10.80;;
18977;SDS011;9623;52.344;20.870;2022-10-31T00:13:29;17.43;;;10.80;;
18977;SDS011;9623;52.344;20.870;2022-10-31T00:15:58;18.60;;;10.70;;
18977;SDS011;9623;52.344;20.870;2022-10-31T00:18:27;18.87;;;9.93;;
18977;SDS011;9623;52.344;20.870;2022-10-31T00:21:00;17.70;;;10.80;;
18977;SDS011;9623;52.344;20.870;2022-10-31T00:23:30;17.00;;;10.60;;
18977;SDS011;9623;52.344;20.870;2022-10-31T00:26:00;19.07;;;11.07;;
18977;SDS011;9623;52.344;20.870;2022-10-31T00:28:41;19.17;;;10.37;;
18977;SDS011;9623;52.344;20.870;2022-10-31T00:31:11;18.70;;;10.17;;
18977;SDS011;9623;52.344;20.870;2022-10-31T00:33:41;22.07;;;10.43;;
18977;SDS011;9623;52.344;20.870;2022-10-31T00:36:23;15.60;;;9.57;;
18977;SDS011;9623;52.344;20.870;2022-10-31T00:38:53;16.10;;;10.20;;
18977;SDS011;9623;52.344;20.870;2022-10-31T00:41:22;15.57;;;9.27;;
18977;SDS011;9623;52.344;20.870;2022-10-31T00:43:53;19.93;;;10.30;;
18977;SDS011;9623;52.344;20.870;2022-10-31T00:46:34;16.73;;;10.00;;
18977;SDS011;9623;52.344;20.870;2022-10-31T00:49:03;15.67;;;10.23;;
18977;SDS011;9623;52.344;20.870;2022-10-31T00:51:33;16.77;;;10.77;;
18977;SDS011;9623;52.344;20.870;2022-10-31T00:54:03;17.67;;;10.33;;
18977;SDS011;9623;52.344;20.870;2022-10-31T00:56:32;16.33;;;10.13;;
18977;SDS011;9623;52.344;20.870;2022-10-31T00:59:01;14.20;;;9.37;;
18977;SDS011;9623;52.344;20.870;2022-10-31T01:01:30;15.30;;;9.47;;
18977;SDS011;9623;52.344;20.870;2022-10-31T01:04:10;16.80;;;9.90;;
18977;SDS011;9623;52.344;20.870;2022-10-31T01:06:39;17.00;;;10.27;;
18977;SDS011;9623;52.344;20.870;2022-10-31T01:09:09;16.87;;;10.03;;
18977;SDS011;9623;52.344;20.870;2022-10-31T01:11:38;15.93;;;10.13;;
18977;SDS011;9623;52.344;20.870;2022-10-31T01:14:08;17.37;;;10.23;;
18977;SDS011;9623;52.344;20.870;2022-10-31T01:16:37;16.47;;;10.07;;
18977;SDS011;9623;52.344;20.870;2022-10-31T01:19:07;14.87;;;9.60;;
18977;SDS011;9623;52.344;20.870;2022-10-31T01:21:36;17.47;;;9.70;;
18977;SDS011;9623;52.344;20.870;2022-10-31T01:24:07;14.30;;;9.37;;
18977;SDS011;9623;52.344;20.870;2022-10-31T01:26:49;15.67;;;9.60;;
18977;SDS011;9623;52.344;20.870;2022-10-31T01:29:19;14.30;;;9.10;;
18977;SDS011;9623;52.344;20.870;2022-10-31T01:31:48;15.83;;;9.50;;
18977;SDS011;9623;52.344;20.870;2022-10-31T01:34:17;14.83;;;9.50;;
18977;SDS011;9623;52.344;20.870;2022-10-31T01:36:46;16.20;;;8.97;;
18977;SDS011;9623;52.344;20.870;2022-10-31T01:39:17;13.17;;;9.13;;
18977;SDS011;9623;52.344;20.870;2022-10-31T01:41:48;12.93;;;8.60;;
18977;SDS011;9623;52.344;20.870;2022-10-31T01:47:15;15.00;;;9.57;;
18977;SDS011;9623;52.344;20.870;2022-10-31T01:49:56;12.73;;;8.57;;
18977;SDS011;9623;52.344;20.870;2022-10-31T01:52:27;14.43;;;8.67;;
18977;SDS011;9623;52.344;20.870;2022-10-31T01:54:59;13.03;;;8.77;;
18977;SDS011;9623;52.344;20.870;2022-10-31T01:57:32;16.37;;;8.70;;
18977;SDS011;9623;52.344;20.870;2022-10-31T02:00:13;13.70;;;8.90;;
18977;SDS011;9623;52.344;20.870;2022-10-31T02:05:22;12.50;;;8.50;;
18977;SDS011;9623;52.344;20.870;2022-10-31T02:07:54;13.10;;;8.70;;
18977;SDS011;9623;52.344;20.870;2022-10-31T02:10:25;13.80;;;8.83;;
18977;SDS011;9623;52.344;20.870;2022-10-31T02:12:56;12.97;;;8.77;;
18977;SDS011;9623;52.344;20.870;2022-10-31T02:15:29;13.93;;;9.23;;
18977;SDS011;9623;52.344;20.870;2022-10-31T02:20:40;14.87;;;8.40;;
18977;SDS011;9623;52.344;20.870;2022-10-31T02:32:53;12.33;;;9.10;;
18977;SDS011;9623;52.344;20.870;2022-10-31T02:35:46;14.57;;;8.67;;
18977;SDS011;9623;52.344;20.870;2022-10-31T02:38:24;13.37;;;8.90;;
18977;SDS011;9623;52.344;20.870;2022-10-31T02:40:59;12.27;;;8.87;;
18977;SDS011;9623;52.344;20.870;2022-10-31T02:43:43;13.13;;;8.83;;
18977;SDS011;9623;52.344;20.870;2022-10-31T02:46:15;11.40;;;8.20;;
18977;SDS011;9623;52.344;20.870;2022-10-31T02:48:46;13.83;;;8.57;;
18977;SDS011;9623;52.344;20.870;2022-10-31T02:51:19;13.33;;;8.63;;
18977;SDS011;9623;52.344;20.870;2022-10-31T02:53:49;13.77;;;8.73;;
18977;SDS011;9623;52.344;20.870;2022-10-31T02:56:19;13.23;;;8.80;;
18977;SDS011;9623;52.344;20.870;2022-10-31T02:58:48;12.13;;;8.30;;
18977;SDS011;9623;52.344;20.870;2022-10-31T03:01:22;12.23;;;8.37;;
18977;SDS011;9623;52.344;20.870;2022-10-31T03:04:33;14.23;;;8.77;;
18977;SDS011;9623;52.344;20.870;2022-10-31T03:07:11;12.67;;;8.50;;
18977;SDS011;9623;52.344;20.870;2022-10-31T03:09:46;12.50;;;8.27;;
18977;SDS011;9623;52.344;20.870;2022-10-31T03:12:19;10.93;;;8.07;;
18977;SDS011;9623;52.344;20.870;2022-10-31T03:14:51;11.33;;;7.23;;
18977;SDS011;9623;52.344;20.870;2022-10-31T03:17:24;13.30;;;8.43;;
18977;SDS011;9623;52.344;20.870;2022-10-31T03:20:06;11.77;;;8.13;;
18977;SDS011;9623;52.344;20.870;2022-10-31T03:22:38;15.03;;;9.37;;
18977;SDS011;9623;52.344;20.870;2022-10-31T03:25:09;12.80;;;8.40;;
18977;SDS011;9623;52.344;20.870;2022-10-31T03:27:40;11.97;;;8.13;;
18977;SDS011;9623;52.344;20.870;2022-10-31T03:30:23;12.00;;;7.47;;
18977;SDS011;9623;52.344;20.870;2022-10-31T03:32:52;12.50;;;8.37;;
18977;SDS011;9623;52.344;20.870;2022-10-31T03:35:24;13.03;;;7.77;;
18977;SDS011;9623;52.344;20.870;2022-10-31T03:37:55;12.30;;;8.10;;
18977;SDS011;9623;52.344;20.870;2022-10-31T03:40:37;11.07;;;7.80;;
18977;SDS011;9623;52.344;20.870;2022-10-31T03:43:09;11.77;;;8.23;;
18977;SDS011;9623;52.344;20.870;2022-10-31T03:45:41;12.30;;;8.13;;
18977;SDS011;9623;52.344;20.870;2022-10-31T03:50:54;12.30;;;8.13;;
18977;SDS011;9623;52.344;20.870;2022-10-31T03:53:26;15.17;;;8.40;;
18977;SDS011;9623;52.344;20.870;2022-10-31T03:56:01;11.27;;;8.17;;
18977;SDS011;9623;52.344;20.870;2022-10-31T03:58:33;13.33;;;7.80;;
18977;SDS011;9623;52.344;20.870;2022-10-31T04:01:06;12.40;;;8.00;;
18977;SDS011;9623;52.344;20.870;2022-10-31T04:03:47;13.67;;;8.53;;
18977;SDS011;9623;52.344;20.870;2022-10-31T04:06:17;13.33;;;8.77;;
18977;SDS011;9623;52.344;20.870;2022-10-31T04:08:49;12.77;;;8.20;;
18977;SDS011;9623;52.344;20.870;2022-10-31T04:11:21;14.00;;;8.90;;
18977;SDS011;9623;52.344;20.870;2022-10-31T04:13:53;13.30;;;8.87;;
18977;SDS011;9623;52.344;20.870;2022-10-31T04:16:23;12.33;;;8.20;;
18977;SDS011;9623;52.344;20.870;2022-10-31T04:19:04;12.37;;;8.63;;
18977;SDS011;9623;52.344;20.870;2022-10-31T04:21:32;13.80;;;8.40;;
18977;SDS011;9623;52.344;20.870;2022-10-31T04:24:02;11.30;;;8.17;;
18977;SDS011;9623;52.344;20.870;2022-10-31T04:26:32;11.97;;;8.00;;
18977;SDS011;9623;52.344;20.870;2022-10-31T04:31:53;13.93;;;8.33;;
18977;SDS011;9623;52.344;20.870;2022-10-31T04:34:22;13.07;;;8.57;;
18977;SDS011;9623;52.344;20.870;2022-10-31T04:36:51;14.20;;;8.63;;
18977;SDS011;9623;52.344;20.870;2022-10-31T04:39:21;13.20;;;8.47;;
18977;SDS011;9623;52.344;20.870;2022-10-31T04:41:51;17.17;;;9.00;;
18977;SDS011;9623;52.344;20.870;2022-10-31T04:44:20;12.63;;;8.00;;
18977;SDS011;9623;52.344;20.870;2022-10-31T04:46:50;13.43;;;8.50;;
18977;SDS011;9623;52.344;20.870;2022-10-31T04:49:20;12.70;;;8.37;;
18977;SDS011;9623;52.344;20.870;2022-10-31T04:51:49;11.83;;;8.50;;
18977;SDS011;9623;52.344;20.870;2022-10-31T04:54:18;16.00;;;9.30;;
18977;SDS011;9623;52.344;20.870;2022-10-31T04:56:47;13.40;;;8.67;;
18977;SDS011;9623;52.344;20.870;2022-10-31T04:59:16;11.03;;;8.13;;
18977;SDS011;9623;52.344;20.870;2022-10-31T05:01:46;13.17;;;8.57;;
18977;SDS011;9623;52.344;20.870;2022-10-31T05:04:15;13.20;;;8.33;;
18977;SDS011;9623;52.344;20.870;2022-10-31T05:06:44;12.80;;;8.60;;
18977;SDS011;9623;52.344;20.870;2022-10-31T05:09:14;13.00;;;8.53;;
18977;SDS011;9623;52.344;20.870;2022-10-31T05:11:44;13.60;;;9.07;;
18977;SDS011;9623;52.344;20.870;2022-10-31T05:14:13;13.60;;;8.80;;
18977;SDS011;9623;52.344;20.870;2022-10-31T05:16:42;13.53;;;9.03;;
18977;SDS011;9623;52.344;20.870;2022-10-31T05:19:12;16.93;;;8.53;;
18977;SDS011;9623;52.344;20.870;2022-10-31T05:21:40;14.50;;;8.83;;
18977;SDS011;9623;52.344;20.870;2022-10-31T05:24:10;13.70;;;8.40;;
18977;SDS011;9623;52.344;20.870;2022-10-31T05:26:39;12.97;;;8.53;;
18977;SDS011;9623;52.344;20.870;2022-10-31T05:29:08;12.97;;;8.80;;
18977;SDS011;9623;52.344;20.870;2022-10-31T05:31:38;12.27;;;8.30;;
18977;SDS011;9623;52.344;20.870;2022-10-31T05:34:18;14.23;;;8.70;;
18977;SDS011;9623;52.344;20.870;2022-10-31T05:36:49;14.27;;;9.13;;
18977;SDS011;9623;52.344;20.870;2022-10-31T05:39:18;15.80;;;9.40;;
18977;SDS011;9623;52.344;20.870;2022-10-31T05:41:47;13.20;;;8.53;;
18977;SDS011;9623;52.344;20.870;2022-10-31T05:44:18;15.63;;;9.23;;
18977;SDS011;9623;52.344;20.870;2022-10-31T05:46:47;13.83;;;8.87;;
18977;SDS011;9623;52.344;20.870;2022-10-31T05:49:16;14.47;;;9.53;;
18977;SDS011;9623;52.344;20.870;2022-10-31T05:51:46;13.90;;;9.17;;
18977;SDS011;9623;52.344;20.870;2022-10-31T05:54:16;15.70;;;10.37;;
18977;SDS011;9623;52.344;20.870;2022-10-31T05:56:56;15.23;;;9.67;;
18977;SDS011;9623;52.344;20.870;2022-10-31T05:59:26;15.57;;;9.60;;
18977;SDS011;9623;52.344;20.870;2022-10-31T06:01:57;15.40;;;9.63;;
18977;SDS011;9623;52.344;20.870;2022-10-31T06:04:26;15.33;;;9.77;;
18977;SDS011;9623;52.344;20.870;2022-10-31T06:06:56;15.17;;;9.43;;
18977;SDS011;9623;52.344;20.870;2022-10-31T06:12:05;16.87;;;10.03;;
18977;SDS011;9623;52.344;20.870;2022-10-31T06:14:34;15.10;;;9.27;;
18977;SDS011;9623;52.344;20.870;2022-10-31T06:17:03;15.87;;;10.07;;
18977;SDS011;9623;52.344;20.870;2022-10-31T06:19:44;13.73;;;9.40;;
18977;SDS011;9623;52.344;20.870;2022-10-31T06:22:13;16.13;;;10.00;;
18977;SDS011;9623;52.344;20.870;2022-10-31T06:24:42;16.90;;;10.10;;
18977;SDS011;9623;52.344;20.870;2022-10-31T06:27:23;15.47;;;10.80;;
18977;SDS011;9623;52.344;20.870;2022-10-31T06:29:54;16.43;;;10.30;;
18977;SDS011;9623;52.344;20.870;2022-10-31T06:32:24;17.57;;;10.73;;
18977;SDS011;9623;52.344;20.870;2022-10-31T06:35:05;18.67;;;10.73;;
18977;SDS011;9623;52.344;20.870;2022-10-31T06:37:35;17.33;;;10.47;;
18977;SDS011;9623;52.344;20.870;2022-10-31T06:40:06;17.37;;;11.07;;
18977;SDS011;9623;52.344;20.870;2022-10-31T06:42:36;18.63;;;11.63;;
18977;SDS011;9623;52.344;20.870;2022-10-31T06:45:06;17.70;;;10.67;;
18977;SDS011;9623;52.344;20.870;2022-10-31T06:47:36;19.43;;;11.03;;
18977;SDS011;9623;52.344;20.870;2022-10-31T06:50:06;18.47;;;12.07;;
18977;SDS011;9623;52.344;20.870;2022-10-31T06:52:37;19.47;;;11.83;;
18977;SDS011;9623;52.344;20.870;2022-10-31T06:55:07;19.40;;;11.87;;
18977;SDS011;9623;52.344;20.870;2022-10-31T06:57:37;14.73;;;10.63;;
18977;SDS011;9623;52.344;20.870;2022-10-31T07:00:11;19.87;;;12.03;;
18977;SDS011;9623;52.344;20.870;2022-10-31T07:02:40;18.40;;;11.60;;
18977;SDS011;9623;52.344;20.870;2022-10-31T07:05:09;17.40;;;11.07;;
18977;SDS011;9623;52.344;20.870;2022-10-31T07:07:38;15.77;;;10.57;;
18977;SDS011;9623;52.344;20.870;2022-10-31T07:10:08;17.60;;;10.83;;
18977;SDS011;9623;52.344;20.870;2022-10-31T07:12:48;16.60;;;10.60;;
18977;SDS011;9623;52.344;20.870;2022-10-31T07:17:59;15.60;;;10.40;;
18977;SDS011;9623;52.344;20.870;2022-10-31T07:20:29;16.07;;;10.90;;
18977;SDS011;9623;52.344;20.870;2022-10-31T07:22:58;15.67;;;10.20;;
18977;SDS011;9623;52.344;20.870;2022-10-31T07:25:29;16.73;;;10.43;;
18977;SDS011;9623;52.344;20.870;2022-10-31T07:27:59;15.90;;;10.20;;
18977;SDS011;9623;52.344;20.870;2022-10-31T07:30:30;17.27;;;10.27;;
18977;SDS011;9623;52.344;20.870;2022-10-31T07:32:59;16.90;;;10.37;;
18977;SDS011;9623;52.344;20.870;2022-10-31T07:35:28;14.67;;;9.53;;
18977;SDS011;9623;52.344;20.870;2022-10-31T07:38:05;13.77;;;9.30;;
18977;SDS011;9623;52.344;20.870;2022-10-31T07:40:36;16.00;;;9.90;;
18977;SDS011;9623;52.344;20.870;2022-10-31T07:43:05;15.17;;;10.00;;
18977;SDS011;9623;52.344;20.870;2022-10-31T07:45:36;15.10;;;8.97;;
18977;SDS011;9623;52.344;20.870;2022-10-31T07:48:06;16.30;;;9.33;;
18977;SDS011;9623;52.344;20.870;2022-10-31T07:50:35;15.73;;;9.43;;
18977;SDS011;9623;52.344;20.870;2022-10-31T07:53:07;14.50;;;10.03;;
18977;SDS011;9623;52.344;20.870;2022-10-31T07:55:37;17.53;;;11.20;;
18977;SDS011;9623;52.344;20.870;2022-10-31T07:58:08;16.87;;;10.63;;
18977;SDS011;9623;52.344;20.870;2022-10-31T08:00:39;14.17;;;10.30;;
18977;SDS011;9623;52.344;20.870;2022-10-31T08:03:09;17.90;;;10.77;;
18977;SDS011;9623;52.344;20.870;2022-10-31T08:05:39;17.10;;;11.00;;
18977;SDS011;9623;52.344;20.870;2022-10-31T08:08:10;15.80;;;11.13;;
18977;SDS011;9623;52.344;20.870;2022-10-31T08:10:40;18.33;;;11.13;;
18977;SDS011;9623;52.344;20.870;2022-10-31T08:13:09;17.10;;;11.33;;
18977;SDS011;9623;52.344;20.870;2022-10-31T08:15:40;18.50;;;11.73;;
18977;SDS011;9623;52.344;20.870;2022-10-31T08:18:11;23.37;;;12.53;;
18977;SDS011;9623;52.344;20.870;2022-10-31T08:20:41;17.63;;;11.60;;
18977;SDS011;9623;52.344;20.870;2022-10-31T08:23:21;19.43;;;11.43;;
18977;SDS011;9623;52.344;20.870;2022-10-31T08:25:50;18.80;;;11.67;;
18977;SDS011;9623;52.344;20.870;2022-10-31T08:28:20;18.23;;;11.40;;
18977;SDS011;9623;52.344;20.870;2022-10-31T08:30:49;18.33;;;11.90;;
18977;SDS011;9623;52.344;20.870;2022-10-31T08:33:31;18.73;;;10.93;;
18977;SDS011;9623;52.344;20.870;2022-10-31T08:36:01;20.13;;;11.83;;
18977;SDS011;9623;52.344;20.870;2022-10-31T08:38:42;18.63;;;11.43;;
18977;SDS011;9623;52.344;20.870;2022-10-31T08:41:11;15.20;;;10.57;;
18977;SDS011;9623;52.344;20.870;2022-10-31T08:43:40;16.60;;;10.97;;
18977;SDS011;9623;52.344;20.870;2022-10-31T08:46:09;17.57;;;10.60;;
18977;SDS011;9623;52.344;20.870;2022-10-31T08:48:40;15.77;;;10.13;;
18977;SDS011;9623;52.344;20.870;2022-10-31T08:51:09;18.40;;;10.63;;
18977;SDS011;9623;52.344;20.870;2022-10-31T08:53:38;16.17;;;11.33;;
18977;SDS011;9623;52.344;20.870;2022-10-31T08:56:08;16.93;;;10.50;;
18977;SDS011;9623;52.344;20.870;2022-10-31T08:58:37;18.03;;;11.03;;
18977;SDS011;9623;52.344;20.870;2022-10-31T09:01:07;17.47;;;10.60;;
18977;SDS011;9623;52.344;20.870;2022-10-31T09:03:36;15.97;;;10.23;;
18977;SDS011;9623;52.344;20.870;2022-10-31T09:06:17;17.23;;;10.90;;
18977;SDS011;9623;52.344;20.870;2022-10-31T09:08:47;16.00;;;10.60;;
18977;SDS011;9623;52.344;20.870;2022-10-31T09:11:16;15.67;;;10.00;;
18977;SDS011;9623;52.344;20.870;2022-10-31T09:13:46;16.57;;;9.90;;
18977;SDS011;9623;52.344;20.870;2022-10-31T09:16:16;14.03;;;9.63;;
18977;SDS011;9623;52.344;20.870;2022-10-31T09:18:44;17.27;;;10.10;;
18977;SDS011;9623;52.344;20.870;2022-10-31T09:21:14;14.77;;;10.03;;
18977;SDS011;9623;52.344;20.870;2022-10-31T09:23:44;17.60;;;9.80;;
18977;SDS011;9623;52.344;20.870;2022-10-31T09:26:13;15.03;;;9.23;;
18977;SDS011;9623;52.344;20.870;2022-10-31T09:28:42;18.30;;;10.23;;
18977;SDS011;9623;52.344;20.870;2022-10-31T09:31:12;13.97;;;9.33;;
18977;SDS011;9623;52.344;20.870;2022-10-31T09:33:41;15.07;;;9.23;;
18977;SDS011;9623;52.344;20.870;2022-10-31T09:36:11;14.77;;;9.50;;
18977;SDS011;9623;52.344;20.870;2022-10-31T09:38:42;15.00;;;9.70;;
18977;SDS011;9623;52.344;20.870;2022-10-31T09:41:14;13.60;;;9.03;;
18977;SDS011;9623;52.344;20.870;2022-10-31T09:43:56;16.63;;;9.90;;
18977;SDS011;9623;52.344;20.870;2022-10-31T09:46:28;15.63;;;9.47;;
18977;SDS011;9623;52.344;20.870;2022-10-31T09:49:16;13.90;;;8.90;;
18977;SDS011;9623;52.344;20.870;2022-10-31T09:52:02;18.30;;;9.53;;
18977;SDS011;9623;52.344;20.870;2022-10-31T09:54:44;14.97;;;9.57;;
18977;SDS011;9623;52.344;20.870;2022-10-31T09:57:16;13.77;;;9.20;;
18977;SDS011;9623;52.344;20.870;2022-10-31T09:59:47;14.20;;;9.17;;
18977;SDS011;9623;52.344;20.870;2022-10-31T10:02:30;14.57;;;8.97;;
18977;SDS011;9623;52.344;20.870;2022-10-31T10:05:12;14.30;;;9.37;;
18977;SDS011;9623;52.344;20.870;2022-10-31T10:07:46;25.10;;;8.93;;
18977;SDS011;9623;52.344;20.870;2022-10-31T10:10:17;15.50;;;8.53;;
18977;SDS011;9623;52.344;20.870;2022-10-31T10:12:58;13.70;;;8.97;;
18977;SDS011;9623;52.344;20.870;2022-10-31T10:15:44;13.23;;;8.63;;
18977;SDS011;9623;52.344;20.870;2022-10-31T10:18:20;13.20;;;8.63;;
18977;SDS011;9623;52.344;20.870;2022-10-31T10:20:56;13.77;;;8.30;;
18977;SDS011;9623;52.344;20.870;2022-10-31T10:23:34;14.00;;;9.00;;
18977;SDS011;9623;52.344;20.870;2022-10-31T10:26:10;13.20;;;9.07;;
18977;SDS011;9623;52.344;20.870;2022-10-31T10:28:49;14.20;;;8.40;;
18977;SDS011;9623;52.344;20.870;2022-10-31T10:31:23;11.83;;;8.50;;
18977;SDS011;9623;52.344;20.870;2022-10-31T10:34:07;11.97;;;7.60;;
18977;SDS011;9623;52.344;20.870;2022-10-31T10:36:40;14.67;;;8.40;;
18977;SDS011;9623;52.344;20.870;2022-10-31T10:39:22;15.30;;;9.10;;
18977;SDS011;9623;52.344;20.870;2022-10-31T10:41:53;14.93;;;7.83;;
18977;SDS011;9623;52.344;20.870;2022-10-31T10:44:34;15.03;;;8.57;;
18977;SDS011;9623;52.344;20.870;2022-10-31T10:47:23;12.00;;;7.60;;
18977;SDS011;9623;52.344;20.870;2022-10-31T10:50:06;13.70;;;8.27;;
18977;SDS011;9623;52.344;20.870;2022-10-31T10:52:38;12.20;;;7.83;;
18977;SDS011;9623;52.344;20.870;2022-10-31T10:55:22;11.57;;;7.57;;
18977;SDS011;9623;52.344;20.870;2022-10-31T10:58:05;13.83;;;7.93;;
18977;SDS011;9623;52.344;20.870;2022-10-31T11:00:38;13.57;;;8.43;;
18977;SDS011;9623;52.344;20.870;2022-10-31T11:03:08;13.10;;;8.10;;
18977;SDS011;9623;52.344;20.870;2022-10-31T11:05:38;13.60;;;8.33;;
18977;SDS011;9623;52.344;20.870;2022-10-31T11:08:11;10.87;;;7.33;;
18977;SDS011;9623;52.344;20.870;2022-10-31T11:10:56;13.00;;;7.60;;
18977;SDS011;9623;52.344;20.870;2022-10-31T11:13:28;13.77;;;7.80;;
18977;SDS011;9623;52.344;20.870;2022-10-31T11:16:09;11.13;;;7.60;;
18977;SDS011;9623;52.344;20.870;2022-10-31T11:18:41;11.17;;;7.20;;
18977;SDS011;9623;52.344;20.870;2022-10-31T11:21:23;14.47;;;7.70;;
18977;SDS011;9623;52.344;20.870;2022-10-31T11:24:03;12.43;;;7.70;;
18977;SDS011;9623;52.344;20.870;2022-10-31T11:26:33;12.63;;;7.43;;
18977;SDS011;9623;52.344;20.870;2022-10-31T11:29:04;11.43;;;7.37;;
18977;SDS011;9623;52.344;20.870;2022-10-31T11:31:39;11.00;;;7.00;;
18977;SDS011;9623;52.344;20.870;2022-10-31T11:34:13;12.30;;;7.45;;
18977;SDS011;9623;52.344;20.870;2022-10-31T11:36:46;11.93;;;6.87;;
18977;SDS011;9623;52.344;20.870;2022-10-31T11:39:17;13.67;;;8.23;;
18977;SDS011;9623;52.344;20.870;2022-10-31T11:41:49;16.63;;;7.13;;
18977;SDS011;9623;52.344;20.870;2022-10-31T11:44:21;23.13;;;6.97;;
18977;SDS011;9623;52.344;20.870;2022-10-31T11:46:52;16.17;;;8.37;;
18977;SDS011;9623;52.344;20.870;2022-10-31T11:49:28;17.77;;;8.03;;
18977;SDS011;9623;52.344;20.870;2022-10-31T11:52:07;11.53;;;7.23;;
18977;SDS011;9623;52.344;20.870;2022-10-31T11:54:40;10.97;;;7.73;;
18977;SDS011;9623;52.344;20.870;2022-10-31T11:57:27;13.73;;;8.10;;
18977;SDS011;9623;52.344;20.870;2022-10-31T11:59:57;14.73;;;7.97;;
18977;SDS011;9623;52.344;20.870;2022-10-31T12:02:27;12.53;;;7.33;;
18977;SDS011;9623;52.344;20.870;2022-10-31T12:04:59;12.80;;;7.53;;
18977;SDS011;9623;52.344;20.870;2022-10-31T12:07:30;11.60;;;7.53;;
18977;SDS011;9623;52.344;20.870;2022-10-31T12:10:12;11.77;;;7.23;;
18977;SDS011;9623;52.344;20.870;2022-10-31T12:12:48;11.53;;;7.53;;
18977;SDS011;9623;52.344;20.870;2022-10-31T12:15:28;10.77;;;7.60;;
18977;SDS011;9623;52.344;20.870;2022-10-31T12:18:22;9.70;;;6.90;;
18977;SDS011;9623;52.344;20.870;2022-10-31T12:21:09;11.10;;;7.47;;
18977;SDS011;9623;52.344;20.870;2022-10-31T12:23:45;10.80;;;7.47;;
18977;SDS011;9623;52.344;20.870;2022-10-31T12:26:19;11.10;;;7.27;;
18977;SDS011;9623;52.344;20.870;2022-10-31T12:29:06;10.63;;;7.60;;
18977;SDS011;9623;52.344;20.870;2022-10-31T12:31:44;10.90;;;7.40;;
18977;SDS011;9623;52.344;20.870;2022-10-31T12:37:20;11.07;;;7.47;;
18977;SDS011;9623;52.344;20.870;2022-10-31T12:39:56;11.00;;;6.67;;
18977;SDS011;9623;52.344;20.870;2022-10-31T12:42:34;11.60;;;8.07;;
18977;SDS011;9623;52.344;20.870;2022-10-31T12:45:11;11.93;;;7.57;;
18977;SDS011;9623;52.344;20.870;2022-10-31T12:47:57;9.33;;;7.00;;
18977;SDS011;9623;52.344;20.870;2022-10-31T12:50:38;9.90;;;7.00;;
18977;SDS011;9623;52.344;20.870;2022-10-31T12:53:25;11.97;;;7.83;;
18977;SDS011;9623;52.344;20.870;2022-10-31T12:56:02;13.27;;;7.77;;
18977;SDS011;9623;52.344;20.870;2022-10-31T12:58:34;10.93;;;7.40;;
18977;SDS011;9623;52.344;20.870;2022-10-31T13:01:07;11.57;;;7.40;;
18977;SDS011;9623;52.344;20.870;2022-10-31T13:03:41;12.97;;;7.87;;
18977;SDS011;9623;52.344;20.870;2022-10-31T13:06:13;11.97;;;7.37;;
18977;SDS011;9623;52.344;20.870;2022-10-31T13:08:47;10.40;;;7.07;;
18977;SDS011;9623;52.344;20.870;2022-10-31T13:11:18;11.83;;;7.73;;
18977;SDS011;9623;52.344;20.870;2022-10-31T13:16:33;11.03;;;7.27;;
18977;SDS011;9623;52.344;20.870;2022-10-31T13:19:08;12.17;;;7.40;;
18977;SDS011;9623;52.344;20.870;2022-10-31T13:21:39;11.23;;;6.90;;
18977;SDS011;9623;52.344;20.870;2022-10-31T13:24:22;10.03;;;7.00;;
18977;SDS011;9623;52.344;20.870;2022-10-31T13:26:54;10.47;;;6.73;;
18977;SDS011;9623;52.344;20.870;2022-10-31T13:29:26;10.43;;;6.93;;
18977;SDS011;9623;52.344;20.870;2022-10-31T13:34:49;10.13;;;7.13;;
18977;SDS011;9623;52.344;20.870;2022-10-31T13:37:30;12.23;;;7.13;;
18977;SDS011;9623;52.344;20.870;2022-10-31T13:42:47;11.43;;;7.20;;
18977;SDS011;9623;52.344;20.870;2022-10-31T13:45:24;14.47;;;6.57;;
18977;SDS011;9623;52.344;20.870;2022-10-31T13:47:55;12.17;;;6.47;;
18977;SDS011;9623;52.344;20.870;2022-10-31T13:53:11;11.00;;;6.57;;
18977;SDS011;9623;52.344;20.870;2022-10-31T13:55:43;11.23;;;6.60;;
18977;SDS011;9623;52.344;20.870;2022-10-31T13:58:23;12.57;;;6.97;;
18977;SDS011;9623;52.344;20.870;2022-10-31T14:03:59;10.70;;;6.83;;
18977;SDS011;9623;52.344;20.870;2022-10-31T14:06:35;17.50;;;7.13;;
18977;SDS011;9623;52.344;20.870;2022-10-31T14:09:28;12.87;;;7.30;;
18977;SDS011;9623;52.344;20.870;2022-10-31T14:11:58;11.23;;;7.73;;
18977;SDS011;9623;52.344;20.870;2022-10-31T14:14:42;16.40;;;9.10;;
18977;SDS011;9623;52.344;20.870;2022-10-31T14:17:23;13.43;;;8.23;;
18977;SDS011;9623;52.344;20.870;2022-10-31T14:20:00;14.67;;;9.03;;
18977;SDS011;9623;52.344;20.870;2022-10-31T14:22:42;15.47;;;9.53;;
18977;SDS011;9623;52.344;20.870;2022-10-31T14:25:29;13.00;;;8.13;;
18977;SDS011;9623;52.344;20.870;2022-10-31T14:28:00;16.00;;;8.77;;
18977;SDS011;9623;52.344;20.870;2022-10-31T14:30:30;14.67;;;9.73;;
18977;SDS011;9623;52.344;20.870;2022-10-31T14:33:01;15.20;;;8.93;;
18977;SDS011;9623;52.344;20.870;2022-10-31T14:35:37;16.83;;;9.57;;
18977;SDS011;9623;52.344;20.870;2022-10-31T14:38:18;14.83;;;9.13;;
18977;SDS011;9623;52.344;20.870;2022-10-31T14:40:55;16.77;;;9.33;;
18977;SDS011;9623;52.344;20.870;2022-10-31T14:43:41;15.57;;;9.13;;
18977;SDS011;9623;52.344;20.870;2022-10-31T14:46:16;13.23;;;9.13;;
18977;SDS011;9623;52.344;20.870;2022-10-31T14:48:56;14.77;;;9.13;;
18977;SDS011;9623;52.344;20.870;2022-10-31T14:51:30;14.83;;;9.63;;
18977;SDS011;9623;52.344;20.870;2022-10-31T14:54:00;17.53;;;9.80;;
18977;SDS011;9623;52.344;20.870;2022-10-31T14:56:33;17.87;;;9.80;;
18977;SDS011;9623;52.344;20.870;2022-10-31T14:59:06;15.20;;;9.23;;
18977;SDS011;9623;52.344;20.870;2022-10-31T15:01:36;14.07;;;8.90;;
18977;SDS011;9623;52.344;20.870;2022-10-31T15:04:20;16.37;;;9.43;;
18977;SDS011;9623;52.344;20.870;2022-10-31T15:06:51;14.53;;;9.60;;
18977;SDS011;9623;52.344;20.870;2022-10-31T15:09:24;15.37;;;9.90;;
18977;SDS011;9623;52.344;20.870;2022-10-31T15:11:54;18.70;;;10.47;;
18977;SDS011;9623;52.344;20.870;2022-10-31T15:14:23;15.70;;;9.33;;
18977;SDS011;9623;52.344;20.870;2022-10-31T15:16:53;14.63;;;9.27;;
18977;SDS011;9623;52.344;20.870;2022-10-31T15:19:35;16.83;;;9.83;;
18977;SDS011;9623;52.344;20.870;2022-10-31T15:22:05;16.13;;;9.90;;
18977;SDS011;9623;52.344;20.870;2022-10-31T15:24:48;14.93;;;10.10;;
18977;SDS011;9623;52.344;20.870;2022-10-31T15:27:20;14.60;;;9.50;;
18977;SDS011;9623;52.344;20.870;2022-10-31T15:30:01;15.37;;;10.67;;
18977;SDS011;9623;52.344;20.870;2022-10-31T15:32:31;16.73;;;9.83;;
18977;SDS011;9623;52.344;20.870;2022-10-31T15:35:18;19.83;;;10.40;;
18977;SDS011;9623;52.344;20.870;2022-10-31T15:37:50;18.83;;;11.00;;
18977;SDS011;9623;52.344;20.870;2022-10-31T15:40:22;17.27;;;10.50;;
18977;SDS011;9623;52.344;20.870;2022-10-31T15:42:53;18.93;;;10.33;;
18977;SDS011;9623;52.344;20.870;2022-10-31T15:45:24;15.87;;;10.00;;
18977;SDS011;9623;52.344;20.870;2022-10-31T15:47:55;14.97;;;10.37;;
18977;SDS011;9623;52.344;20.870;2022-10-31T15:50:27;16.67;;;10.97;;
18977;SDS011;9623;52.344;20.870;2022-10-31T15:55:38;18.83;;;10.43;;